This is the latest recevied weather packets stored in our database for station/object KF0FSA. If no packets are shown the sender has not sent any weather packets the latest 1 day(s).
| Time | Temp. | Humidity | Pressure | Rain* | Wind** | Luminosity | Snow |
|---|---|---|---|---|---|---|---|
| 1777996129 | 8.89° C | 38% | 959 hPa | 0 mm | 2.68 m/s, 15° | 772 W/m² | - |
| 1777995952 | 8.33° C | 39% | 959 hPa | 0 mm | 3.13 m/s, 330° | 756 W/m² | - |
| 1777995528 | 8.33° C | 42% | 959 hPa | 0 mm | 2.68 m/s, 319° | 646 W/m² | - |
| 1777995228 | 8.33° C | 43% | 959.1 hPa | 0 mm | 2.68 m/s, 263° | 542 W/m² | - |
| 1777995053 | 8.33° C | 46% | 959.1 hPa | 0 mm | 2.68 m/s, 306° | 482 W/m² | - |
| 1777994753 | 8.33° C | 46% | 959 hPa | 0 mm | 2.68 m/s, 309° | 514 W/m² | - |
| 1777994328 | 8.33° C | 45% | 959 hPa | 0 mm | 2.68 m/s, 334° | 508 W/m² | - |
| 1777994026 | 8.33° C | 45% | 959 hPa | 0 mm | 2.68 m/s, 339° | 504 W/m² | - |
| 1777993723 | 7.78° C | 46% | 959 hPa | 0 mm | 2.68 m/s, 292° | 511 W/m² | - |
| 1777993119 | 7.78° C | 47% | 959 hPa | 0 mm | 3.58 m/s, 285° | 532 W/m² | - |
| 1777992520 | 7.78° C | 47% | 959 hPa | 0 mm | 3.13 m/s, 347° | 395 W/m² | - |
| 1777992220 | 7.78° C | 47% | 959 hPa | 0 mm | 3.13 m/s, 298° | 520 W/m² | - |
| 1777991920 | 7.78° C | 49% | 959 hPa | 0 mm | 2.68 m/s, 315° | 458 W/m² | - |
| 1777991620 | 7.78° C | 51% | 958.8 hPa | 0 mm | 2.24 m/s, 303° | 512 W/m² | - |
| 1777991320 | 7.22° C | 50% | 958.8 hPa | 0 mm | 2.68 m/s, 313° | 444 W/m² | - |
| 1777991020 | 7.22° C | 52% | 958.8 hPa | 0 mm | 2.68 m/s, 301° | 488 W/m² | - |
| 1777990720 | 7.22° C | 53% | 958.9 hPa | 0 mm | 2.24 m/s, 319° | 404 W/m² | - |
| 1777990420 | 6.67° C | 54% | 958.8 hPa | 0 mm | 1.79 m/s, 283° | 381 W/m² | - |
| 1777990121 | 6.67° C | 56% | 958.8 hPa | 0 mm | 2.24 m/s, 310° | 380 W/m² | - |
| 1777989821 | 6.11° C | 56% | 958.8 hPa | 0 mm | 1.79 m/s, 273° | 376 W/m² | - |
| 1777989518 | 6.11° C | 56% | 958.8 hPa | 0 mm | 1.79 m/s, 266° | 331 W/m² | - |
| 1777989218 | 5.56° C | 58% | 958.9 hPa | 0 mm | 1.79 m/s, 316° | 294 W/m² | - |
| 1777988919 | 5.56° C | 58% | 958.9 hPa | 0 mm | 1.79 m/s, 352° | 207 W/m² | - |
| 1777988617 | 5.56° C | 59% | 958.8 hPa | 0 mm | 1.79 m/s, 29° | 350 W/m² | - |
| 1777988318 | 5.56° C | 60% | 958.8 hPa | 0 mm | 1.34 m/s, 289° | 213 W/m² | - |
* Rain latest hour (hover to see other rain measurements)
** Current wind speed in m/s (hover to see current wind gust speed)